createdAt,value
2023-04-02T00:01:01.990Z,69.09
2023-04-02T00:03:59.316Z,68.96
2023-04-02T00:06:46.400Z,68.88
2023-04-02T00:09:36.774Z,68.68
2023-04-02T00:12:24.032Z,68.46
2023-04-02T00:15:12.603Z,68.56
2023-04-02T00:18:00.006Z,69.26
2023-04-02T00:20:50.943Z,68.74
2023-04-02T00:23:42.707Z,68.91
2023-04-02T00:26:36.768Z,69.14
2023-04-02T00:29:23.642Z,69.24
2023-04-02T00:32:18.004Z,68.47
2023-04-02T00:35:13.639Z,68.71
2023-04-02T00:38:00.667Z,68.42
2023-04-02T00:40:47.636Z,68.93
2023-04-02T00:43:38.419Z,69.11
2023-04-02T00:46:32.198Z,69.05
2023-04-02T00:49:32.678Z,68.82
2023-04-02T00:52:25.031Z,69.13
2023-04-02T00:55:38.997Z,69.31
2023-04-02T00:58:35.067Z,69.48
2023-04-02T01:01:28.417Z,69.25
2023-04-02T01:04:28.837Z,68.53
2023-04-02T01:07:15.949Z,68.97
2023-04-02T01:10:28.994Z,69.16
2023-04-02T01:13:57.886Z,69.02
2023-04-02T01:16:47.511Z,69.03
2023-04-02T01:19:46.482Z,68.69
2023-04-02T01:23:02.525Z,68.82
2023-04-02T01:26:05.525Z,69.31
2023-04-02T01:29:02.153Z,69.48
2023-04-02T01:31:49.905Z,68.78
2023-04-02T01:34:37.900Z,68.90
2023-04-02T01:37:46.761Z,69.32
2023-04-02T01:40:51.422Z,69.41
2023-04-02T01:43:53.076Z,69.38
2023-04-02T01:46:44.905Z,69.04
2023-04-02T01:49:31.787Z,69.63
2023-04-02T01:52:26.974Z,68.96
2023-04-02T01:55:17.642Z,69.12
2023-04-02T01:58:04.727Z,69.47
2023-04-02T02:01:00.103Z,69.24
2023-04-02T02:03:47.147Z,69.46
2023-04-02T02:06:33.994Z,69.10
2023-04-02T02:09:24.150Z,69.48
2023-04-02T02:12:15.323Z,69.21
2023-04-02T02:15:02.496Z,68.86
2023-04-02T02:17:49.949Z,68.70
2023-04-02T02:20:38.971Z,69.42
2023-04-02T02:23:28.823Z,69.50
2023-04-02T02:26:16.080Z,68.74
2023-04-02T02:29:04.173Z,68.96
2023-04-02T02:31:54.098Z,69.21
2023-04-02T02:34:47.567Z,69.62
2023-04-02T02:37:41.016Z,69.56
2023-04-02T02:40:34.421Z,69.58
2023-04-02T02:43:21.382Z,69.45
2023-04-02T02:46:11.292Z,68.88
2023-04-02T02:48:59.819Z,68.77
2023-04-02T02:51:52.535Z,69.07
2023-04-02T02:54:43.015Z,68.81
2023-04-02T02:57:33.112Z,69.58
2023-04-02T03:00:20.534Z,69.44
2023-04-02T03:03:15.359Z,69.00
2023-04-02T03:06:08.505Z,69.37
2023-04-02T03:09:05.090Z,69.68
2023-04-02T03:12:22.706Z,69.22
2023-04-02T03:15:27.923Z,68.92
2023-04-02T03:18:33.473Z,69.19
2023-04-02T03:21:37.335Z,69.36
2023-04-02T03:24:35.873Z,69.21
2023-04-02T03:27:26.720Z,69.36
2023-04-02T03:30:29.400Z,69.63
2023-04-02T03:33:28.779Z,69.53
2023-04-02T03:36:35.712Z,69.43
2023-04-02T03:39:42.816Z,69.45
2023-04-02T03:42:39.374Z,69.34
2023-04-02T03:45:41.785Z,69.36
2023-04-02T03:48:39.322Z,69.69
2023-04-02T03:51:59.954Z,69.42
2023-04-02T03:54:53.129Z,69.83
2023-04-02T03:58:04.477Z,69.04
2023-04-02T04:01:12.470Z,68.99
2023-04-02T04:04:06.987Z,69.23
2023-04-02T04:06:56.613Z,69.67
2023-04-02T04:09:45.971Z,69.83
2023-04-02T04:12:35.915Z,69.46
2023-04-02T04:15:30.279Z,69.73
2023-04-02T04:18:50.075Z,69.06
2023-04-02T04:21:39.963Z,69.60
2023-04-02T04:24:27.542Z,69.14
2023-04-02T04:27:34.654Z,69.38
2023-04-02T04:30:42.462Z,69.66
2023-04-02T04:33:34.638Z,69.55
2023-04-02T04:36:27.817Z,69.21
2023-04-02T04:39:18.843Z,69.21
2023-04-02T04:42:06.793Z,69.48
2023-04-02T04:44:58.242Z,69.78
2023-04-02T04:47:54.024Z,69.33
2023-04-02T04:50:52.905Z,69.84
2023-04-02T04:53:48.491Z,69.99
2023-04-02T04:56:35.342Z,69.69
2023-04-02T04:59:32.442Z,69.38
2023-04-02T05:02:26.714Z,69.60
2023-04-02T05:05:19.651Z,69.91
2023-04-02T05:08:28.285Z,69.31
2023-04-02T05:11:23.428Z,69.65
2023-04-02T05:14:25.715Z,69.47
2023-04-02T05:17:46.576Z,69.33
2023-04-02T05:20:40.745Z,69.39
2023-04-02T05:23:30.078Z,69.48
2023-04-02T05:26:25.783Z,70.00
2023-04-02T05:29:21.560Z,69.42
2023-04-02T05:32:17.320Z,69.97
2023-04-02T05:35:06.622Z,69.78
2023-04-02T05:37:53.546Z,70.05
2023-04-02T05:40:44.584Z,69.91
2023-04-02T05:43:33.670Z,69.21
2023-04-02T05:46:27.397Z,69.87
2023-04-02T05:49:23.743Z,69.96
2023-04-02T05:52:32.643Z,69.43
2023-04-02T05:55:19.829Z,69.80
2023-04-02T05:58:34.596Z,69.43
2023-04-02T06:01:30.929Z,69.69
2023-04-02T06:04:26.171Z,69.54
2023-04-02T06:07:24.341Z,69.78
2023-04-02T06:10:18.514Z,69.81
2023-04-02T06:13:08.949Z,70.07
2023-04-02T06:15:56.333Z,69.92
2023-04-02T06:18:43.666Z,69.78
2023-04-02T06:21:31.745Z,69.88
2023-04-02T06:24:22.993Z,70.33
2023-04-02T06:27:12.039Z,69.75
2023-04-02T06:30:03.641Z,70.03
2023-04-02T06:32:50.838Z,70.15
2023-04-02T06:35:40.718Z,70.41
2023-04-02T06:38:30.084Z,69.89
2023-04-02T06:41:22.095Z,70.01
2023-04-02T06:44:19.903Z,70.21
2023-04-02T06:47:51.602Z,70.35
2023-04-02T06:51:02.242Z,70.67
2023-04-02T06:53:50.039Z,70.14
2023-04-02T06:56:42.537Z,70.38
2023-04-02T06:59:29.384Z,70.79
2023-04-02T07:02:35.945Z,70.19
2023-04-02T07:05:23.400Z,70.20
2023-04-02T07:08:10.295Z,70.91
2023-04-02T07:10:57.120Z,70.95
2023-04-02T07:13:44.581Z,70.61
2023-04-02T07:16:33.074Z,70.94
2023-04-02T07:19:22.042Z,70.42
2023-04-02T07:22:08.872Z,70.91
2023-04-02T07:24:55.917Z,70.66
2023-04-02T07:27:42.766Z,70.72
2023-04-02T07:30:29.875Z,70.76
2023-04-02T07:33:18.995Z,71.34
2023-04-02T07:36:06.285Z,71.13
2023-04-02T07:38:53.211Z,70.75
2023-04-02T07:41:57.040Z,71.12
2023-04-02T07:44:43.904Z,70.65
2023-04-02T07:47:30.979Z,70.55
2023-04-02T07:50:19.085Z,70.82
2023-04-02T07:53:07.318Z,70.94
2023-04-02T07:55:54.479Z,70.90
2023-04-02T07:58:42.239Z,71.04
2023-04-02T08:01:29.797Z,71.08
2023-04-02T08:04:21.973Z,70.32
2023-04-02T08:07:08.883Z,70.54
2023-04-02T08:09:55.698Z,70.65
2023-04-02T08:12:45.422Z,70.83
2023-04-02T08:15:32.327Z,70.27
2023-04-02T08:18:22.597Z,70.89
2023-04-02T08:21:10.660Z,70.43
2023-04-02T08:23:57.584Z,70.73
2023-04-02T08:26:46.373Z,69.91
2023-04-02T08:29:34.421Z,70.39
2023-04-02T08:32:23.083Z,70.60
2023-04-02T08:35:12.792Z,70.28
2023-04-02T08:38:01.483Z,70.31
2023-04-02T08:40:54.802Z,69.72
2023-04-02T08:44:00.629Z,70.11
2023-04-02T08:47:04.452Z,70.35
2023-04-02T08:49:57.979Z,70.32
2023-04-02T08:52:46.192Z,69.91
2023-04-02T08:55:42.980Z,70.25
2023-04-02T08:58:43.795Z,70.11
2023-04-02T09:01:37.109Z,69.57
2023-04-02T09:04:25.702Z,69.81
2023-04-02T09:07:14.498Z,69.51
2023-04-02T09:10:01.782Z,70.16
2023-04-02T09:12:52.898Z,69.44
2023-04-02T09:15:40.665Z,69.58
2023-04-02T09:18:31.032Z,69.85
2023-04-02T09:21:21.035Z,70.15
2023-04-02T09:24:12.432Z,69.88
2023-04-02T09:26:59.404Z,69.48
2023-04-02T09:29:48.571Z,70.45
2023-04-02T09:32:51.855Z,69.94
2023-04-02T09:35:50.913Z,70.21
2023-04-02T09:38:37.686Z,69.87
2023-04-02T09:41:28.670Z,70.37
2023-04-02T09:44:26.762Z,70.11
2023-04-02T09:47:26.518Z,70.36
2023-04-02T09:50:23.377Z,70.47
2023-04-02T09:53:30.786Z,70.03
2023-04-02T09:56:25.607Z,70.23
2023-04-02T09:59:16.935Z,70.54
2023-04-02T10:02:05.586Z,70.30
2023-04-02T10:04:52.725Z,70.63
2023-04-02T10:07:42.978Z,70.43
2023-04-02T10:10:33.453Z,70.53
2023-04-02T10:13:32.568Z,70.52
2023-04-02T10:16:26.962Z,69.85
2023-04-02T10:19:32.524Z,70.45
2023-04-02T10:22:21.635Z,69.70
2023-04-02T10:25:14.956Z,70.64
2023-04-02T10:28:17.399Z,70.26
2023-04-02T10:31:20.133Z,69.94
2023-04-02T10:34:13.073Z,70.23
2023-04-02T10:37:08.321Z,70.72
2023-04-02T10:40:01.330Z,70.69
2023-04-02T10:43:03.483Z,69.85
2023-04-02T10:45:54.749Z,69.94
2023-04-02T10:49:23.662Z,70.39
2023-04-02T10:52:10.457Z,70.49
2023-04-02T10:55:20.540Z,70.29
2023-04-02T10:58:23.725Z,70.01
2023-04-02T11:01:22.231Z,70.85
2023-04-02T11:04:17.673Z,70.30
2023-04-02T11:07:15.118Z,70.29
2023-04-02T11:10:02.135Z,69.89
2023-04-02T11:13:09.313Z,70.17
2023-04-02T11:15:56.424Z,70.09
2023-04-02T11:18:44.885Z,70.39
2023-04-02T11:22:00.223Z,70.80
2023-04-02T11:24:49.687Z,70.87
2023-04-02T11:27:36.736Z,70.63
2023-04-02T11:30:26.288Z,69.90
2023-04-02T11:33:44.779Z,70.01
2023-04-02T11:36:50.842Z,70.29
2023-04-02T11:39:56.728Z,70.78
2023-04-02T11:42:50.057Z,70.82
2023-04-02T11:45:52.974Z,71.02
2023-04-02T11:48:40.890Z,70.57
2023-04-02T11:51:31.247Z,70.61
2023-04-02T11:54:28.441Z,70.58
2023-04-02T11:57:33.310Z,70.49
2023-04-02T12:00:44.579Z,70.76
2023-04-02T12:03:55.816Z,70.97
2023-04-02T12:07:20.626Z,71.42
2023-04-02T12:10:19.178Z,70.99
2023-04-02T12:13:18.156Z,70.84
2023-04-02T12:16:06.698Z,71.18
2023-04-02T12:18:56.586Z,71.47
2023-04-02T12:21:47.338Z,70.60
2023-04-02T12:24:34.317Z,70.95
2023-04-02T12:27:27.714Z,71.26
2023-04-02T12:30:22.803Z,71.31
2023-04-02T12:33:16.771Z,71.00
2023-04-02T12:36:06.790Z,70.91
2023-04-02T12:38:58.171Z,70.62
2023-04-02T12:41:45.011Z,70.50
2023-04-02T12:44:32.600Z,71.48
2023-04-02T12:47:19.578Z,71.03
2023-04-02T12:50:07.265Z,70.54
2023-04-02T12:52:55.632Z,70.67
2023-04-02T12:55:47.444Z,70.85
2023-04-02T12:58:40.060Z,71.42
2023-04-02T13:01:29.383Z,71.19
2023-04-02T13:04:16.526Z,70.61
2023-04-02T13:07:03.558Z,70.91
2023-04-02T13:09:51.884Z,70.71
2023-04-02T13:12:40.473Z,71.07
2023-04-02T13:15:31.988Z,70.46
2023-04-02T13:18:23.048Z,71.06
2023-04-02T13:21:19.472Z,70.46
2023-04-02T13:24:16.945Z,70.97
2023-04-02T13:27:04.089Z,70.60
2023-04-02T13:29:51.049Z,70.80
2023-04-02T13:32:39.101Z,70.79
2023-04-02T13:35:27.250Z,70.80
2023-04-02T13:38:14.143Z,70.25
2023-04-02T13:41:01.085Z,70.50
2023-04-02T13:43:49.367Z,70.39
2023-04-02T13:46:36.292Z,70.81
2023-04-02T13:49:24.158Z,70.35
2023-04-02T13:52:14.997Z,70.41
2023-04-02T13:55:02.213Z,70.38
2023-04-02T13:57:50.374Z,70.49
2023-04-02T14:00:37.880Z,70.47
2023-04-02T14:03:24.881Z,70.36
2023-04-02T14:06:18.636Z,71.09
2023-04-02T14:09:15.703Z,70.61
2023-04-02T14:12:18.204Z,70.92
2023-04-02T14:15:27.478Z,70.19
2023-04-02T14:18:52.840Z,70.59
2023-04-02T14:21:57.913Z,70.16
2023-04-02T14:24:57.632Z,70.14
2023-04-02T14:28:06.446Z,70.44
2023-04-02T14:31:15.497Z,70.38
2023-04-02T14:34:03.715Z,70.31
2023-04-02T14:36:56.355Z,70.20
2023-04-02T14:40:04.042Z,70.12
2023-04-02T14:43:01.394Z,70.60
2023-04-02T14:45:59.777Z,70.46
2023-04-02T14:48:54.385Z,70.46
2023-04-02T14:51:49.933Z,70.02
2023-04-02T14:54:39.612Z,70.46
2023-04-02T14:57:31.386Z,69.95
2023-04-02T15:00:31.785Z,70.47
2023-04-02T15:03:23.699Z,70.71
2023-04-02T15:06:13.096Z,70.62
2023-04-02T15:09:11.962Z,70.04
2023-04-02T15:12:11.148Z,69.99
2023-04-02T15:15:40.619Z,70.06
2023-04-02T15:18:27.984Z,70.18
2023-04-02T15:21:23.060Z,70.50
2023-04-02T15:24:39.287Z,70.61
2023-04-02T15:27:34.254Z,69.82
2023-04-02T15:30:37.311Z,70.48
2023-04-02T15:33:24.370Z,70.54
2023-04-02T15:36:32.629Z,70.20
2023-04-02T15:39:31.483Z,69.75
2023-04-02T15:42:44.091Z,69.79
2023-04-02T15:45:40.064Z,69.71
2023-04-02T15:48:33.048Z,70.30
2023-04-02T15:51:23.357Z,70.01
2023-04-02T15:54:16.488Z,70.23
2023-04-02T15:57:21.924Z,69.50
2023-04-02T16:00:22.245Z,69.37
2023-04-02T16:03:27.601Z,69.40
2023-04-02T16:06:25.301Z,70.08
2023-04-02T16:09:23.285Z,69.49
2023-04-02T16:12:20.648Z,69.98
2023-04-02T16:15:23.654Z,69.10
2023-04-02T16:18:33.696Z,69.18
2023-04-02T16:21:23.669Z,69.11
2023-04-02T16:24:13.349Z,69.67
2023-04-02T16:27:26.221Z,69.64
2023-04-02T16:30:30.004Z,69.46
2023-04-02T16:34:24.839Z,69.49
2023-04-02T16:37:41.995Z,69.24
2023-04-02T16:41:07.070Z,69.54
2023-04-02T16:44:15.352Z,69.48
2023-04-02T16:47:08.229Z,68.92
2023-04-02T16:50:13.411Z,69.44
2023-04-02T16:53:33.907Z,69.36
2023-04-02T16:56:39.436Z,68.86
2023-04-02T16:59:43.732Z,69.07
2023-04-02T17:02:46.067Z,69.35
2023-04-02T17:05:57.396Z,68.39
2023-04-02T17:09:13.762Z,68.81
2023-04-02T17:12:13.672Z,68.41
2023-04-02T17:15:20.905Z,56.60
2023-04-02T17:18:18.372Z,56.64
2023-04-02T17:21:08.531Z,58.36
2023-04-02T17:23:58.528Z,62.64
2023-04-02T17:26:48.662Z,64.21
2023-04-02T17:29:38.668Z,64.46
2023-04-02T17:32:36.902Z,64.73
2023-04-02T17:35:44.036Z,64.63
2023-04-02T17:39:03.333Z,64.69
2023-04-02T17:41:55.910Z,64.72
2023-04-02T17:44:54.940Z,65.43
2023-04-02T17:47:58.968Z,65.25
2023-04-02T17:50:54.612Z,65.16
2023-04-02T17:54:21.233Z,65.24
2023-04-02T17:57:31.254Z,65.03
2023-04-02T18:01:02.825Z,64.82
2023-04-02T18:04:08.246Z,65.15
2023-04-02T18:07:21.647Z,65.55
2023-04-02T18:10:27.390Z,65.36
2023-04-02T18:13:28.330Z,64.77
2023-04-02T18:16:30.487Z,65.16
2023-04-02T18:19:30.931Z,65.61
2023-04-02T18:22:46.716Z,65.54
2023-04-02T18:25:48.714Z,65.38
2023-04-02T18:29:06.500Z,65.39
2023-04-02T18:32:24.516Z,65.12
2023-04-02T18:35:33.601Z,65.51
2023-04-02T18:38:36.006Z,64.54
2023-04-02T18:41:41.994Z,65.38
2023-04-02T18:44:49.094Z,65.17
2023-04-02T18:47:46.565Z,65.30
2023-04-02T18:50:39.361Z,64.82
2023-04-02T18:53:29.531Z,64.76
2023-04-02T18:56:19.739Z,65.29
2023-04-02T18:59:28.275Z,65.02
2023-04-02T19:02:27.324Z,64.82
2023-04-02T19:05:24.207Z,65.25
2023-04-02T19:08:21.682Z,65.43
2023-04-02T19:11:14.568Z,65.19
2023-04-02T19:14:05.339Z,64.86
2023-04-02T19:17:06.120Z,65.13
2023-04-02T19:20:13.202Z,65.21
2023-04-02T19:23:29.887Z,64.80
2023-04-02T19:26:19.464Z,64.91
2023-04-02T19:29:24.447Z,64.51
2023-04-02T19:32:42.406Z,64.35
2023-04-02T19:35:35.625Z,64.66
2023-04-02T19:38:40.886Z,64.48
2023-04-02T19:41:49.931Z,65.04
2023-04-02T19:44:37.730Z,64.71
2023-04-02T19:47:25.079Z,64.48
2023-04-02T19:50:11.966Z,64.84
2023-04-02T19:52:58.913Z,64.32
2023-04-02T19:55:46.101Z,64.34
2023-04-02T19:58:35.415Z,64.51
2023-04-02T20:01:22.339Z,64.32
2023-04-02T20:04:09.309Z,64.50
2023-04-02T20:06:56.228Z,64.71
2023-04-02T20:09:43.080Z,64.38
2023-04-02T20:12:29.911Z,63.98
2023-04-02T20:15:16.871Z,64.03
2023-04-02T20:18:04.577Z,63.48
2023-04-02T20:20:51.476Z,64.17
2023-04-02T20:23:38.319Z,64.29
2023-04-02T20:26:26.428Z,63.67
2023-04-02T20:29:13.276Z,63.90
2023-04-02T20:32:00.113Z,63.70
2023-04-02T20:34:47.125Z,64.17
2023-04-02T20:37:34.139Z,63.99
2023-04-02T20:40:21.293Z,63.95
2023-04-02T20:43:09.400Z,63.56
2023-04-02T20:45:57.971Z,63.85
2023-04-02T20:48:45.284Z,63.74
2023-04-02T20:51:32.429Z,63.72
2023-04-02T20:54:19.273Z,63.92
2023-04-02T20:57:06.270Z,63.70
2023-04-02T20:59:54.550Z,63.62
2023-04-02T21:02:41.436Z,63.46
2023-04-02T21:05:28.293Z,63.47
2023-04-02T21:08:15.145Z,63.70
2023-04-02T21:11:06.129Z,63.71
2023-04-02T21:13:53.501Z,63.72
2023-04-02T21:16:41.260Z,63.64
2023-04-02T21:19:28.148Z,63.34
2023-04-02T21:22:15.375Z,63.51
2023-04-02T21:25:02.255Z,63.41
2023-04-02T21:27:49.289Z,63.28
2023-04-02T21:30:36.369Z,63.14
2023-04-02T21:33:23.230Z,63.08
2023-04-02T21:36:19.001Z,63.37
2023-04-02T21:39:08.301Z,63.49
2023-04-02T21:41:55.372Z,63.33
2023-04-02T21:44:42.258Z,63.19
2023-04-02T21:47:29.110Z,63.49
2023-04-02T21:50:16.039Z,63.67
2023-04-02T21:53:02.912Z,63.45
2023-04-02T21:55:49.755Z,63.51
2023-04-02T21:58:36.654Z,63.42
2023-04-02T22:01:28.036Z,63.46
2023-04-02T22:04:20.840Z,63.40
2023-04-02T22:07:07.783Z,63.41
2023-04-02T22:09:54.682Z,63.39
2023-04-02T22:12:41.846Z,63.55
2023-04-02T22:15:32.014Z,63.16
2023-04-02T22:18:18.847Z,63.44
2023-04-02T22:21:06.266Z,63.34
2023-04-02T22:23:53.470Z,63.27
2023-04-02T22:26:40.939Z,63.18
2023-04-02T22:29:27.972Z,63.33
2023-04-02T22:32:14.848Z,63.26
2023-04-02T22:35:01.911Z,63.31
2023-04-02T22:37:48.728Z,63.28
2023-04-02T22:40:36.084Z,63.33
2023-04-02T22:43:23.088Z,63.37
2023-04-02T22:46:11.230Z,63.55
2023-04-02T22:48:58.395Z,63.11
2023-04-02T22:51:45.706Z,63.17
2023-04-02T22:54:32.580Z,63.29
2023-04-02T22:57:19.720Z,63.12
2023-04-02T23:00:09.905Z,63.24
2023-04-02T23:02:56.789Z,63.18
2023-04-02T23:05:45.859Z,63.04
2023-04-02T23:08:33.770Z,63.24
2023-04-02T23:11:23.376Z,63.24
2023-04-02T23:14:10.317Z,63.23
2023-04-02T23:16:57.154Z,63.18
2023-04-02T23:19:44.034Z,63.24
2023-04-02T23:22:31.146Z,63.26
2023-04-02T23:25:18.008Z,63.12
2023-04-02T23:28:04.986Z,63.05
2023-04-02T23:30:52.437Z,63.35
2023-04-02T23:33:39.494Z,63.07
2023-04-02T23:36:28.778Z,63.30
2023-04-02T23:39:15.447Z,62.73
2023-04-02T23:42:02.305Z,63.25
2023-04-02T23:44:49.428Z,63.11
2023-04-02T23:47:36.353Z,63.11
2023-04-02T23:50:23.321Z,63.06
2023-04-02T23:53:10.427Z,63.24
2023-04-02T23:55:57.402Z,63.36
2023-04-02T23:58:44.645Z,62.71
